Time;durP1;ratioP1;P1;durP2;ratioP2;P2;SDS_P1;SDS_P2;PMS_P1;PMS_P2;Temp;Humidity;BMP_temperature;BMP_pressure;BME280_temperature;BME280_humidity;BME280_pressure;Samples;Min_cycle;Max_cycle;Signal;HPM_P1;HPM_P2
2023/04/22 00:01:33;;;;;;;8.80;5.43;;;13.00;99.90;;;;;;4057839;29;20063;-90
2023/04/22 00:03:34;;;;;;;7.63;5.60;;;13.00;99.90;;;;;;4057078;29;20037;-90
2023/04/22 00:05:36;;;;;;;7.93;4.50;;;13.00;99.90;;;;;;4041871;29;20059;-90
2023/04/22 00:07:41;;;;;;;7.63;4.93;;;13.00;99.90;;;;;;4040324;29;20824;-91
2023/04/22 00:09:44;;;;;;;12.18;5.88;;;13.00;99.90;;;;;;4057770;29;20072;-90
2023/04/22 00:11:45;;;;;;;10.70;5.18;;;12.90;99.90;;;;;;4058090;29;20092;-91
2023/04/22 00:13:46;;;;;;;7.47;5.07;;;11.80;99.90;;;;;;4024512;29;20049;-90
2023/04/22 00:15:46;;;;;;;9.00;4.97;;;12.90;99.90;;;;;;4024537;29;20128;-90
2023/04/22 00:17:48;;;;;;;7.28;5.07;;;12.90;99.90;;;;;;4054953;29;20041;-90
2023/04/22 00:19:49;;;;;;;8.07;4.40;;;12.90;99.90;;;;;;4039259;29;20045;-90
2023/04/22 00:21:49;;;;;;;11.13;5.30;;;12.80;99.90;;;;;;4022718;29;20084;-90
2023/04/22 00:23:51;;;;;;;9.82;5.35;;;12.80;99.90;;;;;;4023835;29;20057;-89
2023/04/22 00:25:52;;;;;;;10.07;5.00;;;12.90;99.90;;;;;;4039139;29;20049;-90
2023/04/22 00:27:53;;;;;;;9.20;5.18;;;12.80;99.90;;;;;;4038270;29;20049;-90
2023/04/22 00:29:53;;;;;;;7.53;5.18;;;12.90;99.90;;;;;;4055623;29;20044;-90
2023/04/22 00:31:54;;;;;;;9.57;5.25;;;12.90;99.90;;;;;;4051430;29;20049;-90
2023/04/22 00:33:56;;;;;;;6.05;4.80;;;12.90;99.90;;;;;;4054805;29;20123;-90
2023/04/22 00:35:57;;;;;;;10.38;5.97;;;12.90;99.90;;;;;;4038566;29;20791;-90
2023/04/22 00:37:58;;;;;;;13.38;6.80;;;13.00;99.90;;;;;;4056256;29;20048;-91
2023/04/22 00:39:59;;;;;;;11.48;5.35;;;12.90;99.90;;;;;;4040818;29;20064;-90
2023/04/22 00:42:00;;;;;;;8.77;5.47;;;12.90;99.90;;;;;;4039493;29;20101;-90
2023/04/22 00:44:02;;;;;;;7.15;5.00;;;12.80;99.90;;;;;;4040787;29;20562;-90
2023/04/22 00:46:03;;;;;;;8.60;5.28;;;12.80;99.90;;;;;;4040755;29;20608;-90
2023/04/22 00:48:05;;;;;;;8.07;5.63;;;12.80;99.90;;;;;;4041404;29;20088;-90
2023/04/22 00:50:07;;;;;;;12.18;5.22;;;12.80;99.90;;;;;;4053458;29;20052;-89
2023/04/22 00:52:07;;;;;;;7.63;5.22;;;12.30;99.90;;;;;;4025415;29;20061;-91
2023/04/22 00:54:09;;;;;;;15.95;6.32;;;12.70;99.90;;;;;;4056875;29;20052;-90
2023/04/22 00:56:12;;;;;;;9.63;5.13;;;12.70;99.90;;;;;;4039838;29;20053;-91
2023/04/22 00:58:14;;;;;;;7.85;5.53;;;12.70;99.90;;;;;;4025954;29;20132;-91
2023/04/22 01:00:15;;;;;;;10.02;5.88;;;12.60;99.90;;;;;;4039166;29;20056;-91
2023/04/22 01:02:16;;;;;;;9.80;6.18;;;12.60;99.90;;;;;;4042931;29;20084;-90
2023/04/22 01:04:17;;;;;;;9.43;6.00;;;11.80;99.90;;;;;;4037250;29;20048;-91
2023/04/22 01:06:19;;;;;;;7.13;5.47;;;12.50;99.90;;;;;;4026088;29;20506;-91
2023/04/22 01:08:20;;;;;;;9.90;5.63;;;12.50;99.90;;;;;;4038696;29;20049;-91
2023/04/22 01:10:20;;;;;;;8.30;5.13;;;12.50;99.90;;;;;;4037847;29;20045;-91
2023/04/22 01:12:21;;;;;;;8.60;5.07;;;12.40;99.90;;;;;;4055710;29;20064;-90
2023/04/22 01:14:23;;;;;;;7.68;4.85;;;12.40;99.90;;;;;;4037319;29;20088;-90
2023/04/22 01:16:24;;;;;;;9.60;5.65;;;12.30;99.90;;;;;;4023325;29;20109;-91
2023/04/22 01:18:27;;;;;;;10.55;5.20;;;12.30;99.90;;;;;;4022052;29;20124;-89
2023/04/22 01:20:28;;;;;;;8.30;4.95;;;12.20;99.90;;;;;;4023175;29;20636;-91
2023/04/22 01:22:40;;;;;;;8.55;6.10;;;12.20;99.90;;;;;;4037692;29;20124;-90
2023/04/22 01:24:41;;;;;;;10.13;5.35;;;12.20;99.90;;;;;;4017402;29;20077;-92
2023/04/22 01:26:43;;;;;;;12.95;5.97;;;12.20;99.90;;;;;;4026096;29;20046;-92
2023/04/22 01:28:53;;;;;;;9.02;5.32;;;12.10;99.90;;;;;;4040367;29;20441;-91
2023/04/22 01:30:55;;;;;;;9.48;5.25;;;12.10;99.90;;;;;;4057301;29;20048;-92
2023/04/22 01:32:57;;;;;;;10.48;5.63;;;12.00;99.90;;;;;;4042165;29;20053;-92
2023/04/22 01:34:58;;;;;;;8.73;5.15;;;12.00;99.90;;;;;;4039874;29;20514;-92
2023/04/22 01:37:00;;;;;;;10.85;5.97;;;12.00;99.90;;;;;;4027101;29;20046;-92
2023/04/22 01:39:07;;;;;;;8.35;4.95;;;12.00;99.90;;;;;;4055507;29;20052;-91
2023/04/22 01:41:11;;;;;;;10.73;5.53;;;12.00;99.90;;;;;;4025712;29;20046;-92
2023/04/22 01:43:12;;;;;;;7.90;5.13;;;12.00;99.90;;;;;;4025685;29;20100;-91
2023/04/22 01:45:16;;;;;;;8.15;5.70;;;12.20;99.90;;;;;;4023114;29;20580;-90
2023/04/22 01:47:17;;;;;;;8.70;5.72;;;11.90;99.90;;;;;;4010678;29;20092;-91
2023/04/22 01:49:19;;;;;;;8.35;5.72;;;11.90;99.90;;;;;;4019794;29;20495;-91
2023/04/22 01:51:19;;;;;;;10.50;5.88;;;11.80;99.90;;;;;;4057030;29;20032;-91
2023/04/22 01:53:20;;;;;;;8.85;6.10;;;11.80;99.90;;;;;;4038960;29;20053;-90
2023/04/22 01:55:22;;;;;;;7.43;5.22;;;11.80;99.90;;;;;;4042775;29;20060;-91
2023/04/22 01:57:23;;;;;;;8.07;5.50;;;11.80;99.90;;;;;;4026000;29;20439;-90
2023/04/22 01:59:24;;;;;;;8.45;5.80;;;11.70;99.90;;;;;;4024999;29;20065;-90
2023/04/22 02:01:25;;;;;;;8.82;5.90;;;11.70;99.90;;;;;;4025116;29;20046;-90
2023/04/22 02:03:31;;;;;;;11.00;5.90;;;11.70;99.90;;;;;;4040403;29;20049;-90
2023/04/22 02:05:35;;;;;;;9.18;6.07;;;11.60;99.90;;;;;;4026205;29;20078;-91
2023/04/22 02:07:44;;;;;;;11.15;6.72;;;11.60;99.90;;;;;;4058143;29;20490;-91
2023/04/22 02:09:46;;;;;;;8.00;6.10;;;11.50;99.90;;;;;;4043127;29;20582;-91
2023/04/22 02:11:46;;;;;;;12.30;5.95;;;11.50;99.90;;;;;;4044050;29;20053;-91
2023/04/22 02:13:48;;;;;;;10.23;5.63;;;11.50;99.90;;;;;;4043137;29;20060;-91
2023/04/22 02:15:50;;;;;;;9.63;5.97;;;11.50;99.90;;;;;;4042944;29;20130;-91
2023/04/22 02:18:01;;;;;;;8.35;6.10;;;11.40;99.90;;;;;;4041771;29;20495;-90
2023/04/22 02:20:03;;;;;;;12.43;5.95;;;11.80;99.90;;;;;;4009703;29;20102;-91
2023/04/22 02:22:04;;;;;;;8.35;6.10;;;11.40;99.90;;;;;;4010699;29;20132;-91
2023/04/22 02:24:06;;;;;;;7.90;6.10;;;11.40;99.90;;;;;;4039348;29;20056;-91
2023/04/22 02:26:07;;;;;;;9.90;6.30;;;11.30;99.90;;;;;;4016046;29;20049;-91
2023/04/22 02:28:17;;;;;;;11.65;5.75;;;11.30;99.90;;;;;;4024535;29;20054;-91
2023/04/22 02:30:28;;;;;;;8.80;6.60;;;11.30;99.90;;;;;;4043052;29;20498;-91
2023/04/22 02:32:30;;;;;;;10.63;6.68;;;11.30;99.90;;;;;;4016598;29;20049;-91
2023/04/22 02:34:35;;;;;;;9.18;6.00;;;11.30;99.90;;;;;;3995620;29;20047;-91
2023/04/22 02:36:37;;;;;;;8.85;6.18;;;11.30;99.90;;;;;;4011530;29;20500;-91
2023/04/22 02:38:45;;;;;;;10.93;7.15;;;11.30;99.90;;;;;;4039149;29;20438;-90
2023/04/22 02:40:47;;;;;;;11.15;6.55;;;11.20;99.90;;;;;;4026467;29;20471;-91
2023/04/22 02:42:48;;;;;;;12.13;6.65;;;11.20;99.90;;;;;;4012503;29;20545;-90
2023/04/22 02:44:56;;;;;;;8.88;6.15;;;11.20;99.90;;;;;;4027970;29;20092;-91
2023/04/22 02:46:57;;;;;;;9.48;6.30;;;11.20;99.90;;;;;;4028313;29;20053;-91
2023/04/22 02:49:00;;;;;;;9.75;6.78;;;11.20;99.90;;;;;;4011034;29;20053;-91
2023/04/22 02:51:01;;;;;;;9.43;6.70;;;11.10;99.90;;;;;;4011868;29;20136;-91
2023/04/22 02:53:03;;;;;;;10.63;6.65;;;11.10;99.90;;;;;;4027239;29;20055;-91
2023/04/22 02:55:05;;;;;;;10.40;6.32;;;11.10;99.90;;;;;;4041509;29;20056;-91
2023/04/22 02:57:08;;;;;;;8.65;6.22;;;11.00;99.90;;;;;;4044359;29;20036;-91
2023/04/22 02:59:08;;;;;;;9.38;6.80;;;11.00;99.90;;;;;;4010029;29;20431;-90
2023/04/22 03:01:10;;;;;;;8.43;6.30;;;11.00;99.90;;;;;;4049610;29;20048;-90
2023/04/22 03:03:11;;;;;;;11.30;6.38;;;10.90;99.90;;;;;;4025907;29;20128;-91
2023/04/22 03:05:13;;;;;;;9.77;6.90;;;10.90;99.90;;;;;;3998965;29;20126;-91
2023/04/22 03:07:14;;;;;;;9.07;6.40;;;10.80;99.90;;;;;;4013137;29;20094;-90
2023/04/22 03:09:17;;;;;;;8.38;6.10;;;10.80;99.90;;;;;;4012401;29;20049;-91
2023/04/22 03:11:18;;;;;;;9.25;7.18;;;10.80;99.90;;;;;;4015953;29;20138;-91
2023/04/22 03:13:21;;;;;;;12.63;6.88;;;11.20;99.90;;;;;;4026832;29;20041;-91
2023/04/22 03:15:22;;;;;;;9.95;6.55;;;10.70;99.90;;;;;;4028547;29;20117;-92
2023/04/22 03:17:24;;;;;;;11.43;6.75;;;10.70;99.90;;;;;;4027851;29;20422;-91
2023/04/22 03:19:25;;;;;;;10.57;7.70;;;10.70;99.90;;;;;;4029270;29;20148;-91
2023/04/22 03:21:27;;;;;;;11.98;7.05;;;10.70;99.90;;;;;;4046031;29;20074;-90
2023/04/22 03:23:29;;;;;;;8.80;6.55;;;10.70;99.90;;;;;;4027090;29;20082;-91
2023/04/22 03:25:32;;;;;;;9.43;6.95;;;10.60;99.90;;;;;;4062382;29;20044;-91
2023/04/22 03:27:39;;;;;;;13.27;6.97;;;10.60;99.90;;;;;;4041806;29;20494;-91
2023/04/22 03:29:42;;;;;;;9.60;7.55;;;10.60;99.90;;;;;;4048794;29;20040;-90
2023/04/22 03:31:52;;;;;;;13.23;6.43;;;10.50;99.90;;;;;;4074742;29;20056;-90
2023/04/22 03:34:10;;;;;;;11.25;7.05;;;10.50;99.90;;;;;;4058674;29;20044;-91
2023/04/22 03:36:12;;;;;;;10.00;7.45;;;10.50;99.90;;;;;;4057001;29;20104;-91
2023/04/22 03:38:18;;;;;;;9.80;7.13;;;10.90;99.90;;;;;;4041789;29;20037;-91
2023/04/22 03:40:19;;;;;;;10.73;6.65;;;10.50;99.90;;;;;;4041397;29;20037;-91
2023/04/22 03:42:27;;;;;;;11.07;7.20;;;10.40;99.90;;;;;;4050732;29;20059;-91
2023/04/22 03:44:27;;;;;;;10.30;7.05;;;10.40;99.90;;;;;;4042726;29;20084;-91
2023/04/22 03:46:28;;;;;;;12.07;7.63;;;10.30;99.90;;;;;;4025625;29;20060;-91
2023/04/22 03:48:54;;;;;;;12.00;7.55;;;10.30;99.90;;;;;;4041951;29;20045;-91
2023/04/22 03:51:02;;;;;;;12.63;8.13;;;10.30;99.90;;;;;;4042303;29;20072;-91
2023/04/22 03:53:05;;;;;;;10.82;6.28;;;10.20;99.90;;;;;;4026479;29;20090;-92
2023/04/22 03:55:32;;;;;;;9.32;6.88;;;10.20;99.90;;;;;;4059197;29;20080;-91
2023/04/22 03:57:34;;;;;;;8.90;6.88;;;10.10;99.90;;;;;;4027672;29;20061;-92
2023/04/22 03:59:36;;;;;;;10.48;6.40;;;10.10;99.90;;;;;;4024435;29;20423;-91
2023/04/22 04:01:38;;;;;;;9.27;7.20;;;10.00;99.90;;;;;;4026092;29;20037;-91
2023/04/22 04:03:41;;;;;;;8.98;6.40;;;10.00;99.90;;;;;;4024111;29;20042;-91
2023/04/22 04:05:49;;;;;;;10.90;7.80;;;10.00;99.90;;;;;;4025897;29;20045;-91
2023/04/22 04:07:51;;;;;;;11.65;7.65;;;9.90;99.90;;;;;;4010857;29;20057;-91
2023/04/22 04:09:59;;;;;;;11.30;7.05;;;9.90;99.90;;;;;;4033940;29;20781;-91
2023/04/22 04:12:02;;;;;;;12.75;7.00;;;9.80;99.90;;;;;;4041644;29;20096;-91
2023/04/22 04:14:08;;;;;;;10.38;7.22;;;9.80;99.90;;;;;;4035239;29;20089;-91
2023/04/22 04:16:10;;;;;;;9.82;6.97;;;9.80;99.90;;;;;;4024427;29;20049;-91
2023/04/22 04:18:17;;;;;;;12.90;8.05;;;9.80;99.90;;;;;;4043770;29;20463;-91
2023/04/22 04:20:18;;;;;;;11.05;7.43;;;9.80;99.90;;;;;;4024214;29;20083;-90
2023/04/22 04:22:19;;;;;;;8.55;7.03;;;9.80;99.90;;;;;;4025444;29;20053;-90
2023/04/22 04:24:21;;;;;;;10.63;7.32;;;9.80;99.90;;;;;;4037920;29;20041;-90
2023/04/22 04:26:22;;;;;;;12.68;8.02;;;9.80;99.90;;;;;;4024782;29;20078;-90
2023/04/22 04:28:25;;;;;;;11.70;7.93;;;9.80;99.90;;;;;;4011936;29;20057;-91
2023/04/22 04:30:27;;;;;;;11.35;7.60;;;9.80;99.90;;;;;;4040823;29;20493;-90
2023/04/22 04:32:35;;;;;;;11.57;7.53;;;9.80;99.90;;;;;;4067962;29;20117;-91
2023/04/22 04:34:39;;;;;;;11.48;7.28;;;9.80;99.90;;;;;;4057577;29;20813;-91
2023/04/22 04:36:41;;;;;;;11.32;7.10;;;9.70;99.90;;;;;;4060975;29;20123;-91
2023/04/22 04:38:42;;;;;;;10.98;8.02;;;9.70;99.90;;;;;;4027066;29;20053;-87
2023/04/22 04:40:44;;;;;;;11.65;7.53;;;9.70;99.90;;;;;;4038961;29;20506;-88
2023/04/22 04:42:45;;;;;;;13.73;8.57;;;9.70;99.90;;;;;;4043065;29;20053;-89
2023/04/22 04:44:47;;;;;;;10.52;6.72;;;9.70;99.90;;;;;;4055496;29;20044;-89
2023/04/22 04:46:50;;;;;;;12.18;7.28;;;9.70;99.90;;;;;;4044862;29;20108;-89
2023/04/22 04:48:57;;;;;;;11.82;7.80;;;9.60;99.90;;;;;;4033497;29;20061;-90
2023/04/22 04:50:59;;;;;;;16.20;8.80;;;9.60;99.90;;;;;;4056090;29;20071;-89
2023/04/22 04:53:02;;;;;;;14.63;7.70;;;9.70;99.90;;;;;;4041134;29;20140;-89
2023/04/22 04:55:03;;;;;;;13.15;7.38;;;9.60;99.90;;;;;;4039602;29;20079;-89
2023/04/22 04:57:04;;;;;;;10.52;7.75;;;9.70;99.90;;;;;;4024677;29;20073;-90
2023/04/22 04:59:05;;;;;;;10.98;7.85;;;9.60;99.90;;;;;;4040234;29;20053;-89
2023/04/22 05:01:06;;;;;;;16.10;7.32;;;9.70;99.90;;;;;;4043418;29;20456;-89
2023/04/22 05:03:07;;;;;;;11.35;7.03;;;9.60;99.90;;;;;;4026814;29;20053;-89
2023/04/22 05:05:09;;;;;;;10.95;7.68;;;9.60;99.90;;;;;;4044848;29;20466;-88
2023/04/22 05:07:10;;;;;;;13.13;8.45;;;9.60;99.90;;;;;;4060895;29;20081;-90
2023/04/22 05:09:11;;;;;;;11.30;7.97;;;9.70;99.90;;;;;;4061088;29;20083;-90
2023/04/22 05:11:12;;;;;;;9.38;7.10;;;9.70;99.90;;;;;;4044321;29;20045;-90
2023/04/22 05:13:13;;;;;;;10.95;7.60;;;8.60;99.90;;;;;;4040047;29;20068;-90
2023/04/22 05:15:15;;;;;;;12.75;7.63;;;9.70;99.90;;;;;;4057634;29;20052;-89
2023/04/22 05:17:22;;;;;;;12.85;8.00;;;9.70;99.90;;;;;;4038856;29;20577;-90
2023/04/22 05:19:23;;;;;;;12.00;8.30;;;9.80;99.90;;;;;;4057589;29;20060;-90
2023/04/22 05:21:24;;;;;;;12.93;8.00;;;9.00;99.90;;;;;;4042187;29;20480;-90
2023/04/22 05:23:26;;;;;;;11.80;7.25;;;8.70;99.90;;;;;;4026588;29;20522;-89
2023/04/22 05:25:37;;;;;;;10.80;7.82;;;9.80;99.90;;;;;;4046623;29;20056;-90
2023/04/22 05:27:39;;;;;;;11.32;7.95;;;9.80;99.90;;;;;;4049992;29;20135;-89
2023/04/22 05:29:39;;;;;;;15.60;8.40;;;9.80;99.90;;;;;;4023782;29;20048;-90
2023/04/22 05:31:40;;;;;;;11.50;8.35;;;9.80;99.90;;;;;;4016193;29;20050;-89
2023/04/22 05:33:41;;;;;;;14.18;8.55;;;9.80;99.90;;;;;;4010221;29;20113;-90
2023/04/22 05:35:42;;;;;;;11.10;7.93;;;9.80;99.90;;;;;;4024668;29;20057;-89
2023/04/22 05:37:44;;;;;;;12.57;8.20;;;9.80;99.90;;;;;;4021989;29;20060;-90
2023/04/22 05:39:45;;;;;;;11.23;8.25;;;9.90;99.90;;;;;;4039340;29;20049;-90
2023/04/22 05:41:45;;;;;;;12.70;8.95;;;9.90;99.90;;;;;;4022396;29;20108;-89
2023/04/22 05:43:47;;;;;;;13.20;8.25;;;9.90;99.90;;;;;;4023406;29;20049;-89
2023/04/22 05:45:48;;;;;;;12.18;8.55;;;10.00;99.90;;;;;;4054613;29;20053;-90
2023/04/22 05:47:51;;;;;;;13.55;8.25;;;10.00;99.90;;;;;;4022320;29;20617;-89
2023/04/22 05:49:52;;;;;;;14.30;8.65;;;10.00;99.90;;;;;;4023170;29;20109;-90
2023/04/22 05:51:53;;;;;;;13.45;8.90;;;10.30;99.90;;;;;;4037351;29;20530;-89
2023/04/22 05:53:54;;;;;;;15.02;8.80;;;10.10;99.90;;;;;;4023560;29;20072;-89
2023/04/22 05:55:56;;;;;;;12.63;7.97;;;10.10;99.90;;;;;;4022372;29;20543;-90
2023/04/22 05:57:58;;;;;;;13.23;9.73;;;10.20;99.90;;;;;;4009117;29;21023;-89
2023/04/22 05:59:59;;;;;;;12.90;8.50;;;10.20;99.90;;;;;;4039439;29;20113;-89
2023/04/22 06:02:00;;;;;;;13.68;8.48;;;10.10;99.90;;;;;;4006253;29;20129;-90
2023/04/22 06:04:01;;;;;;;13.43;8.82;;;10.30;99.90;;;;;;4039539;29;20056;-89
2023/04/22 06:06:02;;;;;;;12.15;8.18;;;10.30;99.90;;;;;;4022287;29;20411;-89
2023/04/22 06:08:05;;;;;;;14.35;8.27;;;10.40;99.90;;;;;;4008242;29;20054;-90
2023/04/22 06:10:07;;;;;;;12.38;8.77;;;10.40;99.90;;;;;;4021733;29;20053;-89
2023/04/22 06:12:09;;;;;;;13.40;8.50;;;10.40;99.90;;;;;;4008184;29;20062;-90
2023/04/22 06:14:11;;;;;;;16.15;8.73;;;10.40;99.90;;;;;;4054234;29;20056;-90
2023/04/22 06:16:13;;;;;;;17.80;9.38;;;11.20;99.90;;;;;;4025539;29;20045;-90
2023/04/22 06:18:14;;;;;;;13.70;8.70;;;10.50;99.90;;;;;;4008112;29;20054;-90
2023/04/22 06:20:15;;;;;;;13.30;9.18;;;10.50;99.90;;;;;;4022617;29;20083;-89
2023/04/22 06:22:18;;;;;;;10.60;8.30;;;10.50;99.90;;;;;;4022977;29;20054;-89
2023/04/22 06:24:19;;;;;;;12.85;8.90;;;10.60;99.90;;;;;;4038683;29;20045;-89
2023/04/22 06:26:19;;;;;;;13.70;8.75;;;10.60;99.90;;;;;;4038758;29;20053;-89
2023/04/22 06:28:26;;;;;;;15.65;9.48;;;10.70;99.90;;;;;;4038934;29;20486;-89
2023/04/22 06:30:29;;;;;;;11.25;8.13;;;10.70;99.90;;;;;;4038266;29;20033;-90
2023/04/22 06:32:30;;;;;;;11.30;8.23;;;10.80;99.90;;;;;;4049637;29;20100;-89
2023/04/22 06:34:31;;;;;;;12.75;8.88;;;10.80;99.90;;;;;;4036979;29;20060;-88
2023/04/22 06:36:36;;;;;;;12.38;8.65;;;10.90;99.90;;;;;;4054825;29;20400;-88
2023/04/22 06:38:37;;;;;;;14.88;9.13;;;10.90;99.90;;;;;;4021822;29;20058;-87
2023/04/22 06:40:39;;;;;;;13.10;8.80;;;11.00;99.90;;;;;;4022030;29;20042;-88
2023/04/22 06:42:40;;;;;;;11.60;8.23;;;11.00;99.90;;;;;;4027699;29;20431;-87
2023/04/22 06:44:43;;;;;;;11.20;8.25;;;11.10;99.90;;;;;;4038260;29;20072;-88
2023/04/22 06:46:44;;;;;;;13.13;8.57;;;10.30;99.90;;;;;;4035765;29;20081;-90
2023/04/22 06:48:45;;;;;;;12.45;9.07;;;11.20;99.90;;;;;;4042860;29;20052;-91
2023/04/22 06:50:53;;;;;;;12.85;8.93;;;11.20;99.90;;;;;;4027129;29;20521;-90
2023/04/22 06:52:54;;;;;;;11.63;7.57;;;11.30;99.90;;;;;;4037610;29;20048;-90
2023/04/22 06:54:54;;;;;;;14.32;8.40;;;11.40;99.90;;;;;;4027083;29;20080;-89
2023/04/22 06:56:55;;;;;;;13.43;8.40;;;11.40;99.90;;;;;;4058950;29;20486;-89
2023/04/22 06:58:56;;;;;;;12.48;8.45;;;11.40;99.90;;;;;;4058830;29;20033;-88
2023/04/22 07:00:57;;;;;;;14.43;8.23;;;11.50;99.90;;;;;;4026239;29;20053;-90
2023/04/22 07:02:59;;;;;;;14.18;8.27;;;11.60;99.90;;;;;;4058205;29;20036;-90
2023/04/22 07:05:00;;;;;;;11.65;8.40;;;10.40;99.90;;;;;;4041728;29;20057;-90
2023/04/22 07:07:01;;;;;;;12.80;8.55;;;11.60;99.90;;;;;;4025792;29;20052;-90
2023/04/22 07:09:02;;;;;;;14.00;8.70;;;11.70;99.90;;;;;;4041918;29;20052;-90
2023/04/22 07:11:03;;;;;;;13.63;8.10;;;11.70;99.90;;;;;;4041254;29;20061;-89
2023/04/22 07:13:04;;;;;;;12.80;8.40;;;11.80;99.90;;;;;;4058028;29;20398;-90
2023/04/22 07:15:06;;;;;;;14.18;7.93;;;11.80;99.90;;;;;;4040397;29;20068;-90
2023/04/22 07:17:07;;;;;;;11.30;8.30;;;11.80;99.90;;;;;;4057341;29;20059;-90
2023/04/22 07:19:07;;;;;;;12.52;7.82;;;12.00;99.90;;;;;;4041114;29;20062;-90
2023/04/22 07:21:11;;;;;;;11.38;7.43;;;12.00;99.90;;;;;;4041724;29;20041;-89
2023/04/22 07:23:13;;;;;;;9.90;7.53;;;12.00;99.90;;;;;;4053420;29;20051;-90
2023/04/22 07:25:14;;;;;;;11.30;8.27;;;12.00;99.90;;;;;;4057898;29;20092;-91
2023/04/22 07:27:15;;;;;;;12.60;7.90;;;12.10;99.90;;;;;;4041131;29;20053;-90
2023/04/22 07:29:16;;;;;;;11.15;7.50;;;12.10;99.90;;;;;;4025495;29;20545;-89
2023/04/22 07:31:17;;;;;;;13.00;7.68;;;12.20;99.90;;;;;;4040688;29;20064;-90
2023/04/22 07:33:19;;;;;;;13.48;7.75;;;12.30;99.90;;;;;;4058348;29;20044;-90
2023/04/22 07:35:20;;;;;;;13.63;6.72;;;12.30;99.90;;;;;;4041612;29;20074;-90
2023/04/22 07:37:22;;;;;;;9.25;6.80;;;12.40;99.90;;;;;;4042053;29;20052;-89
2023/04/22 07:39:26;;;;;;;8.95;6.75;;;12.50;99.90;;;;;;4036832;29;20112;-90
2023/04/22 07:41:26;;;;;;;12.18;7.35;;;12.50;99.90;;;;;;4040419;29;20120;-90
2023/04/22 07:43:27;;;;;;;10.60;7.75;;;12.60;99.90;;;;;;4059822;29;20045;-89
2023/04/22 07:45:28;;;;;;;11.35;7.60;;;12.60;99.90;;;;;;4041610;29;20059;-90
2023/04/22 07:47:29;;;;;;;8.82;6.95;;;12.80;99.90;;;;;;4041433;29;20044;-90
2023/04/22 07:49:30;;;;;;;11.18;6.82;;;12.80;99.90;;;;;;4058208;29;20068;-90
2023/04/22 07:51:31;;;;;;;11.35;6.57;;;12.80;99.90;;;;;;4025687;29;20125;-90
2023/04/22 07:53:32;;;;;;;10.55;7.07;;;12.90;99.90;;;;;;4052171;29;20096;-89
2023/04/22 07:55:33;;;;;;;12.35;6.70;;;12.90;99.90;;;;;;4054916;29;20466;-88
2023/04/22 07:57:37;;;;;;;14.98;7.88;;;;;;;;;;4056512;29;20032;-88
2023/04/22 07:59:38;;;;;;;9.80;6.53;;;;;;;;;;4039524;29;20437;-89
2023/04/22 08:01:39;;;;;;;10.93;7.43;;;;;;;;;;4040305;29;20056;-89
2023/04/22 08:03:41;;;;;;;9.85;6.93;;;;;;;;;;4039297;29;20124;-89
2023/04/22 08:05:41;;;;;;;11.50;7.97;;;13.10;99.90;;;;;;4039977;29;20056;-88
2023/04/22 08:07:42;;;;;;;14.52;6.88;;;13.60;99.90;;;;;;4038731;29;20052;-89
2023/04/22 08:09:43;;;;;;;9.80;6.78;;;13.70;99.90;;;;;;4040453;29;20053;-85
2023/04/22 08:11:44;;;;;;;9.98;6.28;;;13.70;99.90;;;;;;4056206;29;20055;-87
2023/04/22 08:13:45;;;;;;;8.93;6.47;;;13.80;99.90;;;;;;4040238;29;20064;-88
2023/04/22 08:15:46;;;;;;;10.68;6.95;;;13.90;99.90;;;;;;4023580;29;20045;-87
2023/04/22 08:17:52;;;;;;;10.85;6.63;;;14.00;99.90;;;;;;4024911;29;20292;-87
2023/04/22 08:19:52;;;;;;;9.10;6.40;;;14.10;99.90;;;;;;4022860;29;20053;-87
2023/04/22 08:21:54;;;;;;;9.77;6.72;;;14.20;99.90;;;;;;4012087;29;20491;-87
2023/04/22 08:23:57;;;;;;;10.63;6.97;;;14.30;99.90;;;;;;4022917;29;20064;-87
2023/04/22 08:25:58;;;;;;;12.93;6.60;;;14.40;99.90;;;;;;4039037;29;20055;-87
2023/04/22 08:27:59;;;;;;;9.75;6.75;;;14.50;99.90;;;;;;4038777;29;20193;-86
2023/04/22 08:30:00;;;;;;;10.23;6.47;;;14.60;99.90;;;;;;4039829;29;20044;-86
2023/04/22 08:32:02;;;;;;;10.65;7.05;;;14.80;99.90;;;;;;4038761;29;20052;-87
2023/04/22 08:34:03;;;;;;;10.95;6.75;;;;;;;;;;4045738;29;20049;-85
2023/04/22 08:36:04;;;;;;;11.00;6.80;;;;;;;;;;4056014;29;20048;-84
2023/04/22 08:38:06;;;;;;;9.55;6.30;;;14.90;99.90;;;;;;4055676;29;20041;-86
2023/04/22 08:40:07;;;;;;;10.07;6.38;;;;;;;;;;4055625;29;20048;-85
2023/04/22 08:42:09;;;;;;;13.05;6.45;;;;;;;;;;4021960;29;20053;-85
2023/04/22 08:44:14;;;;;;;11.82;6.00;;;;;;;;;;4054634;29;20054;-85
2023/04/22 08:46:18;;;;;;;8.40;5.57;;;;;;;;;;4053438;29;20052;-85
2023/04/22 08:48:19;;;;;;;9.57;5.72;;;;;;;;;;4053257;29;20056;-85
2023/04/22 08:50:21;;;;;;;11.23;6.28;;;15.40;99.90;;;;;;4053820;29;20485;-85
2023/04/22 08:52:23;;;;;;;8.80;6.50;;;16.50;99.90;;;;;;4054243;29;20048;-85
2023/04/22 08:54:23;;;;;;;8.77;5.95;;;16.80;99.90;;;;;;4054482;29;20482;-86
2023/04/22 08:56:25;;;;;;;12.43;6.28;;;17.00;99.90;;;;;;4020621;29;20137;-85
2023/04/22 08:58:27;;;;;;;11.95;6.55;;;;;;;;;;4053312;29;20045;-85
2023/04/22 09:00:29;;;;;;;10.82;6.40;;;;;;;;;;4042425;29;20045;-85
2023/04/22 09:02:32;;;;;;;8.07;5.70;;;;;;;;;;4057098;29;20044;-86
2023/04/22 09:04:33;;;;;;;9.65;7.10;;;;;;;;;;4039075;29;20045;-84
2023/04/22 09:06:34;;;;;;;8.52;5.65;;;;;;;;;;4054391;29;20445;-85
2023/04/22 09:08:35;;;;;;;7.05;5.15;;;17.20;99.90;;;;;;4055574;29;20513;-85
2023/04/22 09:10:37;;;;;;;9.85;5.68;;;17.90;99.90;;;;;;4037719;29;20049;-85
2023/04/22 09:12:40;;;;;;;9.55;6.07;;;17.90;99.90;;;;;;4038162;29;20045;-85
2023/04/22 09:14:41;;;;;;;8.63;5.88;;;17.90;99.90;;;;;;4052715;29;20119;-85
2023/04/22 09:16:47;;;;;;;12.02;7.18;;;17.90;99.90;;;;;;4054792;29;20052;-86
2023/04/22 09:18:49;;;;;;;9.80;6.32;;;17.90;99.90;;;;;;4037948;29;20056;-85
2023/04/22 09:20:55;;;;;;;10.25;6.25;;;17.90;99.90;;;;;;4036673;29;20557;-85
2023/04/22 09:23:01;;;;;;;10.98;6.13;;;17.90;99.90;;;;;;4055362;29;20040;-85
2023/04/22 09:25:03;;;;;;;17.63;6.13;;;18.00;99.90;;;;;;4054683;29;20494;-85
2023/04/22 09:27:04;;;;;;;8.68;5.50;;;18.00;99.90;;;;;;4037482;29;20045;-86
2023/04/22 09:29:08;;;;;;;8.57;6.53;;;18.10;99.90;;;;;;4038036;29;20106;-85
2023/04/22 09:31:13;;;;;;;8.73;5.97;;;18.10;99.90;;;;;;4053870;29;20064;-85
2023/04/22 09:33:16;;;;;;;9.85;5.88;;;18.20;99.90;;;;;;4054831;29;20052;-84
2023/04/22 09:35:24;;;;;;;11.27;5.90;;;18.20;99.90;;;;;;4037330;29;20123;-84
2023/04/22 09:37:28;;;;;;;9.25;6.35;;;19.20;99.90;;;;;;4037126;29;20057;-85
2023/04/22 09:39:29;;;;;;;10.35;6.20;;;18.70;99.90;;;;;;4055252;29;20052;-85
2023/04/22 09:41:32;;;;;;;8.52;6.32;;;18.80;99.90;;;;;;4050681;29;20493;-86
2023/04/22 09:43:33;;;;;;;9.43;6.30;;;18.90;99.90;;;;;;4032573;29;20064;-87
2023/04/22 09:45:39;;;;;;;9.60;6.03;;;19.00;99.90;;;;;;4038947;29;20052;-86
2023/04/22 09:47:40;;;;;;;8.52;5.43;;;19.10;99.90;;;;;;4039994;29;20483;-86
2023/04/22 09:49:48;;;;;;;8.25;5.57;;;19.30;99.90;;;;;;4038319;29;20045;-85
2023/04/22 09:51:56;;;;;;;8.25;5.93;;;19.40;99.90;;;;;;4041355;29;20100;-83
2023/04/22 09:54:05;;;;;;;7.40;5.65;;;19.60;99.90;;;;;;4042934;29;20062;-84
2023/04/22 09:56:07;;;;;;;7.88;5.75;;;20.00;99.90;;;;;;4024525;29;20049;-82
2023/04/22 09:58:13;;;;;;;8.25;6.85;;;20.20;99.90;;;;;;4040161;29;20049;-83
2023/04/22 10:00:14;;;;;;;8.98;6.25;;;20.10;99.90;;;;;;4009108;29;20746;-83
2023/04/22 10:02:15;;;;;;;8.15;5.20;;;19.80;99.90;;;;;;4041073;29;20053;-83
2023/04/22 10:04:19;;;;;;;9.57;6.53;;;19.90;99.90;;;;;;4040938;29;20537;-83
2023/04/22 10:06:21;;;;;;;7.40;5.63;;;19.90;99.90;;;;;;4039278;29;20041;-83
2023/04/22 10:08:21;;;;;;;8.50;6.10;;;19.80;99.90;;;;;;4040048;29;20502;-84
2023/04/22 10:10:23;;;;;;;8.65;5.60;;;19.80;99.90;;;;;;4039184;29;20041;-84
2023/04/22 10:12:25;;;;;;;12.32;5.78;;;20.00;99.90;;;;;;4037125;29;20052;-82
2023/04/22 10:14:26;;;;;;;8.35;5.45;;;20.10;99.90;;;;;;4006101;29;20571;-84
2023/04/22 10:16:31;;;;;;;9.57;5.22;;;20.10;99.90;;;;;;4037688;29;20067;-84
2023/04/22 10:18:33;;;;;;;8.55;5.65;;;20.10;99.90;;;;;;4037975;29;20048;-84
2023/04/22 10:20:39;;;;;;;9.00;6.20;;;19.60;99.90;;;;;;4020589;29;20061;-83
2023/04/22 10:22:43;;;;;;;8.73;5.95;;;20.10;99.10;;;;;;4020528;29;20069;-84
2023/04/22 10:24:46;;;;;;;8.30;5.22;;;20.20;99.50;;;;;;4038164;29;20510;-84
2023/04/22 10:26:48;;;;;;;7.78;5.05;;;20.40;98.90;;;;;;4005230;29;20062;-83
2023/04/22 10:28:50;;;;;;;8.80;5.63;;;20.40;98.40;;;;;;4006911;29;20054;-84
2023/04/22 10:30:50;;;;;;;6.13;4.85;;;20.50;97.90;;;;;;4023914;29;20054;-84
2023/04/22 10:32:52;;;;;;;7.22;5.28;;;20.50;97.40;;;;;;4023987;29;20471;-84
2023/04/22 10:35:13;;;;;;;8.32;5.43;;;20.70;97.40;;;;;;4009081;29;20050;-84
2023/04/22 10:37:20;;;;;;;8.10;5.45;;;20.80;96.20;;;;;;4039240;29;20049;-84
2023/04/22 10:39:21;;;;;;;10.00;5.57;;;21.00;96.30;;;;;;4041263;29;20045;-83